sensor_id;sensor_type;location;lat;lon;timestamp;P1;durP1;ratioP1;P2;durP2;ratioP2
27187;SDS011;14708;50.872;5.306;2023-01-16T00:03:10;2.50;;;1.20;;
27187;SDS011;14708;50.872;5.306;2023-01-16T00:05:38;3.33;;;1.55;;
27187;SDS011;14708;50.872;5.306;2023-01-16T00:08:04;3.30;;;1.17;;
27187;SDS011;14708;50.872;5.306;2023-01-16T00:10:29;2.40;;;1.30;;
27187;SDS011;14708;50.872;5.306;2023-01-16T00:12:55;3.22;;;1.40;;
27187;SDS011;14708;50.872;5.306;2023-01-16T00:45:43;1.23;;;0.90;;
27187;SDS011;14708;50.872;5.306;2023-01-16T00:48:09;1.52;;;1.00;;
27187;SDS011;14708;50.872;5.306;2023-01-16T00:50:35;1.95;;;1.08;;
27187;SDS011;14708;50.872;5.306;2023-01-16T00:53:01;3.05;;;0.98;;
27187;SDS011;14708;50.872;5.306;2023-01-16T00:55:32;2.55;;;0.95;;
27187;SDS011;14708;50.872;5.306;2023-01-16T01:08:06;1.60;;;0.85;;
27187;SDS011;14708;50.872;5.306;2023-01-16T01:10:32;2.78;;;1.23;;
27187;SDS011;14708;50.872;5.306;2023-01-16T01:13:00;1.33;;;0.80;;
27187;SDS011;14708;50.872;5.306;2023-01-16T01:15:26;2.88;;;1.23;;
27187;SDS011;14708;50.872;5.306;2023-01-16T01:17:51;2.00;;;0.90;;
27187;SDS011;14708;50.872;5.306;2023-01-16T01:23:38;1.95;;;0.90;;
27187;SDS011;14708;50.872;5.306;2023-01-16T01:26:05;1.55;;;0.98;;
27187;SDS011;14708;50.872;5.306;2023-01-16T01:28:44;1.63;;;0.77;;
27187;SDS011;14708;50.872;5.306;2023-01-16T01:31:10;1.83;;;1.00;;
27187;SDS011;14708;50.872;5.306;2023-01-16T01:33:37;1.65;;;0.95;;
27187;SDS011;14708;50.872;5.306;2023-01-16T02:12:48;2.20;;;1.00;;
27187;SDS011;14708;50.872;5.306;2023-01-16T02:15:15;1.52;;;0.90;;
27187;SDS011;14708;50.872;5.306;2023-01-16T02:17:44;2.63;;;1.17;;
27187;SDS011;14708;50.872;5.306;2023-01-16T02:57:32;1.13;;;0.70;;
27187;SDS011;14708;50.872;5.306;2023-01-16T03:00:05;2.65;;;1.05;;
27187;SDS011;14708;50.872;5.306;2023-01-16T03:02:33;1.55;;;0.75;;
27187;SDS011;14708;50.872;5.306;2023-01-16T03:04:58;1.80;;;0.90;;
27187;SDS011;14708;50.872;5.306;2023-01-16T03:13:11;1.35;;;0.65;;
27187;SDS011;14708;50.872;5.306;2023-01-16T03:40:20;1.40;;;0.70;;
27187;SDS011;14708;50.872;5.306;2023-01-16T03:42:52;2.03;;;0.80;;
27187;SDS011;14708;50.872;5.306;2023-01-16T03:45:31;1.35;;;0.60;;
27187;SDS011;14708;50.872;5.306;2023-01-16T03:50:56;1.70;;;0.98;;
27187;SDS011;14708;50.872;5.306;2023-01-16T03:53:38;1.20;;;0.70;;
27187;SDS011;14708;50.872;5.306;2023-01-16T03:56:12;2.45;;;1.00;;
27187;SDS011;14708;50.872;5.306;2023-01-16T03:58:45;0.68;;;0.65;;
27187;SDS011;14708;50.872;5.306;2023-01-16T04:04:27;2.10;;;0.77;;
27187;SDS011;14708;50.872;5.306;2023-01-16T04:09:50;1.55;;;0.90;;
27187;SDS011;14708;50.872;5.306;2023-01-16T04:12:26;0.95;;;0.63;;
27187;SDS011;14708;50.872;5.306;2023-01-16T04:14:58;1.58;;;0.70;;
27187;SDS011;14708;50.872;5.306;2023-01-16T04:51:11;0.93;;;0.68;;
27187;SDS011;14708;50.872;5.306;2023-01-16T04:53:37;2.33;;;0.80;;
27187;SDS011;14708;50.872;5.306;2023-01-16T04:56:03;1.80;;;0.82;;
27187;SDS011;14708;50.872;5.306;2023-01-16T04:58:28;1.52;;;0.70;;
27187;SDS011;14708;50.872;5.306;2023-01-16T05:00:54;1.42;;;0.82;;
27187;SDS011;14708;50.872;5.306;2023-01-16T05:13:25;1.55;;;0.88;;
27187;SDS011;14708;50.872;5.306;2023-01-16T05:15:51;1.80;;;0.70;;
27187;SDS011;14708;50.872;5.306;2023-01-16T05:18:17;1.60;;;0.75;;
27187;SDS011;14708;50.872;5.306;2023-01-16T05:20:42;1.27;;;0.63;;
27187;SDS011;14708;50.872;5.306;2023-01-16T05:23:08;0.70;;;0.70;;
27187;SDS011;14708;50.872;5.306;2023-01-16T05:25:37;2.10;;;0.90;;
27187;SDS011;14708;50.872;5.306;2023-01-16T05:31:26;2.30;;;0.80;;
27187;SDS011;14708;50.872;5.306;2023-01-16T05:33:52;1.52;;;0.77;;
27187;SDS011;14708;50.872;5.306;2023-01-16T05:36:18;1.15;;;0.50;;
27187;SDS011;14708;50.872;5.306;2023-01-16T05:38:43;1.42;;;0.88;;
27187;SDS011;14708;50.872;5.306;2023-01-16T05:41:11;4.25;;;1.10;;
27187;SDS011;14708;50.872;5.306;2023-01-16T05:43:37;2.55;;;0.70;;
27187;SDS011;14708;50.872;5.306;2023-01-16T05:46:02;1.63;;;0.80;;
27187;SDS011;14708;50.872;5.306;2023-01-16T05:48:28;2.08;;;0.95;;
27187;SDS011;14708;50.872;5.306;2023-01-16T05:50:56;1.33;;;0.70;;
27187;SDS011;14708;50.872;5.306;2023-01-16T05:53:22;1.23;;;0.80;;
27187;SDS011;14708;50.872;5.306;2023-01-16T05:55:47;1.77;;;0.88;;
27187;SDS011;14708;50.872;5.306;2023-01-16T05:58:14;2.53;;;1.00;;
27187;SDS011;14708;50.872;5.306;2023-01-16T06:00:58;2.13;;;0.80;;
27187;SDS011;14708;50.872;5.306;2023-01-16T06:03:24;1.55;;;0.63;;
27187;SDS011;14708;50.872;5.306;2023-01-16T06:05:50;2.67;;;0.80;;
27187;SDS011;14708;50.872;5.306;2023-01-16T06:08:15;5.50;;;1.05;;
27187;SDS011;14708;50.872;5.306;2023-01-16T06:10:41;1.88;;;0.68;;
27187;SDS011;14708;50.872;5.306;2023-01-16T06:51:58;1.88;;;0.80;;
27187;SDS011;14708;50.872;5.306;2023-01-16T06:54:25;1.75;;;0.70;;
27187;SDS011;14708;50.872;5.306;2023-01-16T06:56:50;1.75;;;0.65;;
27187;SDS011;14708;50.872;5.306;2023-01-16T06:59:16;0.85;;;0.55;;
27187;SDS011;14708;50.872;5.306;2023-01-16T07:01:42;1.00;;;0.50;;
27187;SDS011;14708;50.872;5.306;2023-01-16T07:04:07;1.40;;;0.52;;
27187;SDS011;14708;50.872;5.306;2023-01-16T07:06:34;2.83;;;0.60;;
27187;SDS011;14708;50.872;5.306;2023-01-16T07:12:23;1.25;;;0.63;;
27187;SDS011;14708;50.872;5.306;2023-01-16T07:14:48;1.08;;;0.75;;
27187;SDS011;14708;50.872;5.306;2023-01-16T07:17:32;2.50;;;0.70;;
27187;SDS011;14708;50.872;5.306;2023-01-16T07:20:23;1.92;;;0.90;;
27187;SDS011;14708;50.872;5.306;2023-01-16T07:26:21;1.90;;;0.65;;
27187;SDS011;14708;50.872;5.306;2023-01-16T07:28:48;1.95;;;0.82;;
27187;SDS011;14708;50.872;5.306;2023-01-16T07:31:14;3.30;;;0.90;;
27187;SDS011;14708;50.872;5.306;2023-01-16T07:33:41;13.13;;;2.60;;
27187;SDS011;14708;50.872;5.306;2023-01-16T07:39:44;36.70;;;6.20;;
27187;SDS011;14708;50.872;5.306;2023-01-16T07:42:09;20.33;;;4.50;;
27187;SDS011;14708;50.872;5.306;2023-01-16T07:44:35;24.70;;;4.68;;
27187;SDS011;14708;50.872;5.306;2023-01-16T07:47:01;23.60;;;4.40;;
27187;SDS011;14708;50.872;5.306;2023-01-16T07:49:26;20.55;;;4.43;;
27187;SDS011;14708;50.872;5.306;2023-01-16T07:51:52;29.50;;;5.38;;
27187;SDS011;14708;50.872;5.306;2023-01-16T07:54:18;23.67;;;4.90;;
27187;SDS011;14708;50.872;5.306;2023-01-16T07:56:43;22.08;;;4.60;;
27187;SDS011;14708;50.872;5.306;2023-01-16T07:59:09;32.58;;;5.95;;
27187;SDS011;14708;50.872;5.306;2023-01-16T08:01:34;23.60;;;5.25;;
27187;SDS011;14708;50.872;5.306;2023-01-16T08:04:00;23.40;;;4.70;;
27187;SDS011;14708;50.872;5.306;2023-01-16T08:09:22;30.10;;;5.25;;
27187;SDS011;14708;50.872;5.306;2023-01-16T08:11:47;23.40;;;4.93;;
27187;SDS011;14708;50.872;5.306;2023-01-16T08:14:13;16.08;;;4.63;;
27187;SDS011;14708;50.872;5.306;2023-01-16T08:16:51;19.42;;;4.30;;
27187;SDS011;14708;50.872;5.306;2023-01-16T08:19:17;21.00;;;4.82;;
27187;SDS011;14708;50.872;5.306;2023-01-16T08:21:43;21.13;;;4.65;;
27187;SDS011;14708;50.872;5.306;2023-01-16T08:24:09;19.98;;;4.07;;
27187;SDS011;14708;50.872;5.306;2023-01-16T08:26:37;25.48;;;5.45;;
27187;SDS011;14708;50.872;5.306;2023-01-16T08:29:03;19.35;;;4.75;;
27187;SDS011;14708;50.872;5.306;2023-01-16T08:31:32;18.52;;;4.70;;
27187;SDS011;14708;50.872;5.306;2023-01-16T08:34:06;14.52;;;3.83;;
27187;SDS011;14708;50.872;5.306;2023-01-16T08:36:32;16.08;;;4.35;;
27187;SDS011;14708;50.872;5.306;2023-01-16T08:49:03;13.27;;;4.00;;
27187;SDS011;14708;50.872;5.306;2023-01-16T08:51:54;12.90;;;3.78;;
27187;SDS011;14708;50.872;5.306;2023-01-16T08:54:20;16.13;;;3.85;;
27187;SDS011;14708;50.872;5.306;2023-01-16T08:56:46;12.43;;;3.28;;
27187;SDS011;14708;50.872;5.306;2023-01-16T08:59:11;16.73;;;3.95;;
27187;SDS011;14708;50.872;5.306;2023-01-16T09:01:37;13.70;;;3.80;;
27187;SDS011;14708;50.872;5.306;2023-01-16T09:10:52;14.05;;;3.50;;
27187;SDS011;14708;50.872;5.306;2023-01-16T09:13:37;19.45;;;3.90;;
27187;SDS011;14708;50.872;5.306;2023-01-16T09:16:19;12.15;;;3.45;;
27187;SDS011;14708;50.872;5.306;2023-01-16T09:18:46;14.68;;;4.05;;
27187;SDS011;14708;50.872;5.306;2023-01-16T09:38:21;11.93;;;3.75;;
27187;SDS011;14708;50.872;5.306;2023-01-16T09:40:47;10.15;;;3.30;;
27187;SDS011;14708;50.872;5.306;2023-01-16T09:46:01;11.77;;;3.80;;
27187;SDS011;14708;50.872;5.306;2023-01-16T09:48:33;17.65;;;4.38;;
27187;SDS011;14708;50.872;5.306;2023-01-16T09:51:05;10.02;;;3.30;;
27187;SDS011;14708;50.872;5.306;2023-01-16T09:53:45;8.70;;;3.15;;
27187;SDS011;14708;50.872;5.306;2023-01-16T09:56:39;10.48;;;3.40;;
27187;SDS011;14708;50.872;5.306;2023-01-16T10:18:45;6.78;;;2.45;;
27187;SDS011;14708;50.872;5.306;2023-01-16T10:24:11;10.32;;;3.45;;
27187;SDS011;14708;50.872;5.306;2023-01-16T10:29:48;7.63;;;2.80;;
27187;SDS011;14708;50.872;5.306;2023-01-16T10:41:46;7.38;;;2.78;;
27187;SDS011;14708;50.872;5.306;2023-01-16T10:44:54;6.07;;;2.63;;
27187;SDS011;14708;50.872;5.306;2023-01-16T10:47:57;7.80;;;2.85;;
27187;SDS011;14708;50.872;5.306;2023-01-16T10:50:41;7.63;;;3.08;;
27187;SDS011;14708;50.872;5.306;2023-01-16T11:03:02;7.40;;;3.05;;
27187;SDS011;14708;50.872;5.306;2023-01-16T11:05:47;6.25;;;2.78;;
27187;SDS011;14708;50.872;5.306;2023-01-16T11:20:43;7.60;;;2.90;;
27187;SDS011;14708;50.872;5.306;2023-01-16T11:25:44;7.85;;;2.75;;
27187;SDS011;14708;50.872;5.306;2023-01-16T11:31:52;9.65;;;2.67;;
27187;SDS011;14708;50.872;5.306;2023-01-16T11:34:23;8.68;;;2.83;;
27187;SDS011;14708;50.872;5.306;2023-01-16T11:37:03;12.70;;;2.47;;
27187;SDS011;14708;50.872;5.306;2023-01-16T11:39:31;4.03;;;1.90;;
27187;SDS011;14708;50.872;5.306;2023-01-16T11:42:03;5.68;;;2.38;;
27187;SDS011;14708;50.872;5.306;2023-01-16T11:44:51;6.57;;;2.53;;
27187;SDS011;14708;50.872;5.306;2023-01-16T11:47:42;5.35;;;2.08;;
27187;SDS011;14708;50.872;5.306;2023-01-16T12:06:15;6.30;;;2.40;;
27187;SDS011;14708;50.872;5.306;2023-01-16T12:21:19;9.98;;;2.25;;
27187;SDS011;14708;50.872;5.306;2023-01-16T12:26:35;7.85;;;2.30;;
27187;SDS011;14708;50.872;5.306;2023-01-16T12:38:16;5.13;;;1.70;;
27187;SDS011;14708;50.872;5.306;2023-01-16T12:43:57;7.22;;;2.22;;
27187;SDS011;14708;50.872;5.306;2023-01-16T12:46:34;5.05;;;2.15;;
27187;SDS011;14708;50.872;5.306;2023-01-16T13:08:44;5.38;;;1.98;;
27187;SDS011;14708;50.872;5.306;2023-01-16T13:11:19;4.68;;;1.73;;
27187;SDS011;14708;50.872;5.306;2023-01-16T13:14:08;7.47;;;2.42;;
27187;SDS011;14708;50.872;5.306;2023-01-16T13:20:09;4.80;;;1.60;;
27187;SDS011;14708;50.872;5.306;2023-01-16T13:22:55;6.60;;;2.08;;
27187;SDS011;14708;50.872;5.306;2023-01-16T13:25:36;5.05;;;1.60;;
27187;SDS011;14708;50.872;5.306;2023-01-16T13:28:06;3.63;;;1.83;;
27187;SDS011;14708;50.872;5.306;2023-01-16T13:30:35;6.32;;;2.08;;
27187;SDS011;14708;50.872;5.306;2023-01-16T13:33:22;3.38;;;1.73;;
27187;SDS011;14708;50.872;5.306;2023-01-16T13:41:33;4.47;;;1.88;;
27187;SDS011;14708;50.872;5.306;2023-01-16T13:47:25;4.00;;;1.83;;
27187;SDS011;14708;50.872;5.306;2023-01-16T13:50:08;4.05;;;1.88;;
27187;SDS011;14708;50.872;5.306;2023-01-16T13:52:42;4.82;;;2.00;;
27187;SDS011;14708;50.872;5.306;2023-01-16T13:55:27;8.63;;;2.10;;
27187;SDS011;14708;50.872;5.306;2023-01-16T13:57:56;5.40;;;2.05;;
27187;SDS011;14708;50.872;5.306;2023-01-16T14:00:35;3.55;;;1.70;;
27187;SDS011;14708;50.872;5.306;2023-01-16T14:03:19;7.75;;;2.17;;
27187;SDS011;14708;50.872;5.306;2023-01-16T14:05:49;4.00;;;1.40;;
27187;SDS011;14708;50.872;5.306;2023-01-16T14:08:24;3.25;;;1.65;;
27187;SDS011;14708;50.872;5.306;2023-01-16T14:17:21;4.97;;;1.83;;
27187;SDS011;14708;50.872;5.306;2023-01-16T14:19:59;6.35;;;1.65;;
27187;SDS011;14708;50.872;5.306;2023-01-16T14:22:32;2.53;;;1.23;;
27187;SDS011;14708;50.872;5.306;2023-01-16T14:25:05;2.97;;;1.10;;
27187;SDS011;14708;50.872;5.306;2023-01-16T14:27:41;4.57;;;1.50;;
27187;SDS011;14708;50.872;5.306;2023-01-16T14:36:52;3.03;;;1.10;;
27187;SDS011;14708;50.872;5.306;2023-01-16T14:41:59;6.20;;;1.25;;
27187;SDS011;14708;50.872;5.306;2023-01-16T14:47:52;9.60;;;2.53;;
27187;SDS011;14708;50.872;5.306;2023-01-16T14:50:51;10.60;;;2.72;;
27187;SDS011;14708;50.872;5.306;2023-01-16T14:53:42;8.02;;;1.90;;
27187;SDS011;14708;50.872;5.306;2023-01-16T15:01:34;7.03;;;2.05;;
27187;SDS011;14708;50.872;5.306;2023-01-16T15:04:23;9.40;;;2.20;;
27187;SDS011;14708;50.872;5.306;2023-01-16T15:06:57;7.68;;;2.60;;
27187;SDS011;14708;50.872;5.306;2023-01-16T15:09:28;6.30;;;2.78;;
27187;SDS011;14708;50.872;5.306;2023-01-16T15:11:57;9.75;;;2.95;;
27187;SDS011;14708;50.872;5.306;2023-01-16T15:14:24;12.60;;;2.88;;
27187;SDS011;14708;50.872;5.306;2023-01-16T15:17:03;7.13;;;2.72;;
27187;SDS011;14708;50.872;5.306;2023-01-16T15:22:50;7.15;;;2.65;;
27187;SDS011;14708;50.872;5.306;2023-01-16T15:28:12;6.00;;;2.40;;
27187;SDS011;14708;50.872;5.306;2023-01-16T15:30:51;8.70;;;2.65;;
27187;SDS011;14708;50.872;5.306;2023-01-16T15:33:27;8.35;;;2.50;;
27187;SDS011;14708;50.872;5.306;2023-01-16T15:41:48;7.03;;;2.60;;
27187;SDS011;14708;50.872;5.306;2023-01-16T15:44:38;7.95;;;2.30;;
27187;SDS011;14708;50.872;5.306;2023-01-16T15:47:43;7.85;;;2.70;;
27187;SDS011;14708;50.872;5.306;2023-01-16T15:50:30;6.25;;;2.28;;
27187;SDS011;14708;50.872;5.306;2023-01-16T15:52:58;6.28;;;2.38;;
27187;SDS011;14708;50.872;5.306;2023-01-16T15:55:25;6.97;;;2.40;;
27187;SDS011;14708;50.872;5.306;2023-01-16T15:57:57;7.25;;;2.42;;
27187;SDS011;14708;50.872;5.306;2023-01-16T16:00:34;6.57;;;2.13;;
27187;SDS011;14708;50.872;5.306;2023-01-16T16:05:43;8.27;;;2.40;;
27187;SDS011;14708;50.872;5.306;2023-01-16T16:08:12;4.60;;;2.20;;
27187;SDS011;14708;50.872;5.306;2023-01-16T16:10:41;8.02;;;2.58;;
27187;SDS011;14708;50.872;5.306;2023-01-16T16:13:26;5.18;;;1.95;;
27187;SDS011;14708;50.872;5.306;2023-01-16T16:15:56;6.97;;;2.47;;
27187;SDS011;14708;50.872;5.306;2023-01-16T16:18:53;7.32;;;2.72;;
27187;SDS011;14708;50.872;5.306;2023-01-16T16:21:29;5.68;;;2.22;;
27187;SDS011;14708;50.872;5.306;2023-01-16T16:24:03;9.00;;;2.40;;
27187;SDS011;14708;50.872;5.306;2023-01-16T16:26:30;7.15;;;2.42;;
27187;SDS011;14708;50.872;5.306;2023-01-16T16:28:59;6.85;;;2.28;;
27187;SDS011;14708;50.872;5.306;2023-01-16T16:31:28;5.75;;;1.95;;
27187;SDS011;14708;50.872;5.306;2023-01-16T16:34:03;10.25;;;2.40;;
27187;SDS011;14708;50.872;5.306;2023-01-16T16:36:41;8.57;;;2.55;;
27187;SDS011;14708;50.872;5.306;2023-01-16T16:41:50;6.03;;;2.00;;
27187;SDS011;14708;50.872;5.306;2023-01-16T16:44:37;4.53;;;2.10;;
27187;SDS011;14708;50.872;5.306;2023-01-16T16:47:13;5.55;;;2.25;;
27187;SDS011;14708;50.872;5.306;2023-01-16T16:49:41;5.50;;;2.47;;
27187;SDS011;14708;50.872;5.306;2023-01-16T16:52:29;4.40;;;1.85;;
27187;SDS011;14708;50.872;5.306;2023-01-16T16:54:57;3.80;;;1.90;;
27187;SDS011;14708;50.872;5.306;2023-01-16T16:57:24;6.15;;;2.22;;
27187;SDS011;14708;50.872;5.306;2023-01-16T16:59:55;5.60;;;2.20;;
27187;SDS011;14708;50.872;5.306;2023-01-16T17:02:20;6.55;;;2.30;;
27187;SDS011;14708;50.872;5.306;2023-01-16T17:04:49;6.68;;;2.40;;
27187;SDS011;14708;50.872;5.306;2023-01-16T17:07:15;6.63;;;2.13;;
27187;SDS011;14708;50.872;5.306;2023-01-16T17:09:41;5.43;;;2.10;;
27187;SDS011;14708;50.872;5.306;2023-01-16T17:12:17;5.65;;;2.42;;
27187;SDS011;14708;50.872;5.306;2023-01-16T17:14:46;7.25;;;2.50;;
27187;SDS011;14708;50.872;5.306;2023-01-16T17:17:16;5.25;;;2.08;;
27187;SDS011;14708;50.872;5.306;2023-01-16T17:19:43;5.63;;;2.00;;
27187;SDS011;14708;50.872;5.306;2023-01-16T17:22:10;7.15;;;2.20;;
27187;SDS011;14708;50.872;5.306;2023-01-16T17:24:36;6.88;;;2.30;;
27187;SDS011;14708;50.872;5.306;2023-01-16T17:27:02;5.85;;;2.25;;
27187;SDS011;14708;50.872;5.306;2023-01-16T17:29:32;5.18;;;2.00;;
27187;SDS011;14708;50.872;5.306;2023-01-16T17:31:59;8.30;;;2.53;;
27187;SDS011;14708;50.872;5.306;2023-01-16T17:34:29;5.18;;;2.10;;
27187;SDS011;14708;50.872;5.306;2023-01-16T17:36:57;7.03;;;2.03;;
27187;SDS011;14708;50.872;5.306;2023-01-16T17:39:23;8.65;;;2.20;;
27187;SDS011;14708;50.872;5.306;2023-01-16T17:41:50;6.05;;;2.30;;
27187;SDS011;14708;50.872;5.306;2023-01-16T17:44:18;6.47;;;1.92;;
27187;SDS011;14708;50.872;5.306;2023-01-16T17:47:07;3.67;;;1.95;;
27187;SDS011;14708;50.872;5.306;2023-01-16T17:49:34;4.22;;;2.00;;
27187;SDS011;14708;50.872;5.306;2023-01-16T17:52:19;6.32;;;2.00;;
27187;SDS011;14708;50.872;5.306;2023-01-16T17:54:45;5.13;;;2.08;;
27187;SDS011;14708;50.872;5.306;2023-01-16T17:57:30;4.88;;;1.95;;
27187;SDS011;14708;50.872;5.306;2023-01-16T17:59:56;4.25;;;1.88;;
27187;SDS011;14708;50.872;5.306;2023-01-16T18:02:22;3.92;;;2.00;;
27187;SDS011;14708;50.872;5.306;2023-01-16T18:04:48;4.10;;;1.83;;
27187;SDS011;14708;50.872;5.306;2023-01-16T18:07:16;3.85;;;1.55;;
27187;SDS011;14708;50.872;5.306;2023-01-16T18:09:42;5.05;;;1.88;;
27187;SDS011;14708;50.872;5.306;2023-01-16T18:12:08;5.20;;;1.52;;
27187;SDS011;14708;50.872;5.306;2023-01-16T18:14:52;3.50;;;1.85;;
27187;SDS011;14708;50.872;5.306;2023-01-16T18:17:37;3.78;;;1.70;;
27187;SDS011;14708;50.872;5.306;2023-01-16T18:20:03;4.18;;;1.70;;
27187;SDS011;14708;50.872;5.306;2023-01-16T18:22:33;3.58;;;1.70;;
27187;SDS011;14708;50.872;5.306;2023-01-16T18:24:59;4.60;;;1.50;;
27187;SDS011;14708;50.872;5.306;2023-01-16T18:27:26;5.32;;;1.80;;
27187;SDS011;14708;50.872;5.306;2023-01-16T18:29:53;4.63;;;2.00;;
27187;SDS011;14708;50.872;5.306;2023-01-16T18:32:19;7.07;;;1.75;;
27187;SDS011;14708;50.872;5.306;2023-01-16T18:37:14;4.00;;;1.45;;
27187;SDS011;14708;50.872;5.306;2023-01-16T18:39:40;7.28;;;1.92;;
27187;SDS011;14708;50.872;5.306;2023-01-16T18:42:24;4.43;;;1.73;;
27187;SDS011;14708;50.872;5.306;2023-01-16T18:45:28;4.72;;;2.03;;
27187;SDS011;14708;50.872;5.306;2023-01-16T18:48:13;3.17;;;1.85;;
27187;SDS011;14708;50.872;5.306;2023-01-16T18:50:58;4.95;;;1.80;;
27187;SDS011;14708;50.872;5.306;2023-01-16T18:53:50;5.78;;;1.70;;
27187;SDS011;14708;50.872;5.306;2023-01-16T18:56:42;5.10;;;1.80;;
27187;SDS011;14708;50.872;5.306;2023-01-16T18:59:27;6.63;;;1.73;;
27187;SDS011;14708;50.872;5.306;2023-01-16T19:04:46;3.75;;;1.50;;
27187;SDS011;14708;50.872;5.306;2023-01-16T19:07:14;4.20;;;1.60;;
27187;SDS011;14708;50.872;5.306;2023-01-16T19:09:45;3.83;;;1.77;;
27187;SDS011;14708;50.872;5.306;2023-01-16T19:12:12;3.83;;;1.58;;
27187;SDS011;14708;50.872;5.306;2023-01-16T19:17:07;4.68;;;1.70;;
27187;SDS011;14708;50.872;5.306;2023-01-16T19:19:35;4.22;;;1.73;;
27187;SDS011;14708;50.872;5.306;2023-01-16T19:22:03;2.88;;;1.40;;
27187;SDS011;14708;50.872;5.306;2023-01-16T19:24:29;3.42;;;1.60;;
27187;SDS011;14708;50.872;5.306;2023-01-16T19:26:56;4.45;;;1.38;;
27187;SDS011;14708;50.872;5.306;2023-01-16T19:29:25;4.47;;;1.60;;
27187;SDS011;14708;50.872;5.306;2023-01-16T19:31:52;4.13;;;1.63;;
27187;SDS011;14708;50.872;5.306;2023-01-16T19:34:19;2.53;;;1.40;;
27187;SDS011;14708;50.872;5.306;2023-01-16T19:36:45;3.92;;;1.77;;
27187;SDS011;14708;50.872;5.306;2023-01-16T19:39:11;3.90;;;1.55;;
27187;SDS011;14708;50.872;5.306;2023-01-16T19:41:40;1.90;;;1.17;;
27187;SDS011;14708;50.872;5.306;2023-01-16T19:44:24;2.45;;;1.27;;
27187;SDS011;14708;50.872;5.306;2023-01-16T19:47:09;3.85;;;1.27;;
27187;SDS011;14708;50.872;5.306;2023-01-16T19:49:35;4.30;;;1.50;;
27187;SDS011;14708;50.872;5.306;2023-01-16T19:52:02;4.10;;;1.55;;
27187;SDS011;14708;50.872;5.306;2023-01-16T19:54:28;2.80;;;1.45;;
27187;SDS011;14708;50.872;5.306;2023-01-16T19:56:54;3.58;;;1.50;;
27187;SDS011;14708;50.872;5.306;2023-01-16T19:59:20;3.85;;;1.40;;
27187;SDS011;14708;50.872;5.306;2023-01-16T20:01:50;3.88;;;1.67;;
27187;SDS011;14708;50.872;5.306;2023-01-16T20:04:20;3.55;;;1.40;;
27187;SDS011;14708;50.872;5.306;2023-01-16T20:06:47;2.40;;;1.33;;
27187;SDS011;14708;50.872;5.306;2023-01-16T20:09:12;2.63;;;1.20;;
27187;SDS011;14708;50.872;5.306;2023-01-16T20:11:38;2.30;;;1.33;;
27187;SDS011;14708;50.872;5.306;2023-01-16T20:14:22;2.95;;;1.40;;
27187;SDS011;14708;50.872;5.306;2023-01-16T20:16:51;3.25;;;1.17;;
27187;SDS011;14708;50.872;5.306;2023-01-16T20:19:17;3.10;;;1.20;;
27187;SDS011;14708;50.872;5.306;2023-01-16T20:21:42;3.67;;;1.42;;
27187;SDS011;14708;50.872;5.306;2023-01-16T20:24:08;2.50;;;1.27;;
27187;SDS011;14708;50.872;5.306;2023-01-16T20:26:34;3.50;;;1.63;;
27187;SDS011;14708;50.872;5.306;2023-01-16T20:29:03;3.30;;;1.48;;
27187;SDS011;14708;50.872;5.306;2023-01-16T20:31:29;3.78;;;1.88;;
27187;SDS011;14708;50.872;5.306;2023-01-16T20:33:57;4.78;;;1.15;;
27187;SDS011;14708;50.872;5.306;2023-01-16T20:36:23;2.08;;;1.00;;
27187;SDS011;14708;50.872;5.306;2023-01-16T20:38:49;2.70;;;1.13;;
27187;SDS011;14708;50.872;5.306;2023-01-16T20:41:16;2.67;;;1.25;;
27187;SDS011;14708;50.872;5.306;2023-01-16T20:44:05;2.67;;;1.38;;
27187;SDS011;14708;50.872;5.306;2023-01-16T20:46:57;2.10;;;1.38;;
27187;SDS011;14708;50.872;5.306;2023-01-16T20:49:26;2.40;;;1.37;;
27187;SDS011;14708;50.872;5.306;2023-01-16T20:51:53;2.60;;;1.40;;
27187;SDS011;14708;50.872;5.306;2023-01-16T20:54:19;2.42;;;1.05;;
27187;SDS011;14708;50.872;5.306;2023-01-16T20:56:47;3.03;;;1.20;;
27187;SDS011;14708;50.872;5.306;2023-01-16T20:59:14;2.55;;;1.30;;
27187;SDS011;14708;50.872;5.306;2023-01-16T21:01:40;2.30;;;1.15;;
27187;SDS011;14708;50.872;5.306;2023-01-16T21:04:06;3.00;;;1.50;;
27187;SDS011;14708;50.872;5.306;2023-01-16T21:06:32;4.55;;;1.02;;
27187;SDS011;14708;50.872;5.306;2023-01-16T21:08:57;2.13;;;1.20;;
27187;SDS011;14708;50.872;5.306;2023-01-16T21:11:24;1.95;;;1.00;;
27187;SDS011;14708;50.872;5.306;2023-01-16T21:14:10;3.05;;;1.30;;
27187;SDS011;14708;50.872;5.306;2023-01-16T21:16:38;2.88;;;1.30;;
27187;SDS011;14708;50.872;5.306;2023-01-16T21:19:24;3.75;;;1.30;;
27187;SDS011;14708;50.872;5.306;2023-01-16T21:22:08;4.15;;;1.17;;
27187;SDS011;14708;50.872;5.306;2023-01-16T21:24:36;4.25;;;1.15;;
27187;SDS011;14708;50.872;5.306;2023-01-16T21:27:05;4.93;;;1.20;;
27187;SDS011;14708;50.872;5.306;2023-01-16T21:29:31;2.53;;;1.05;;
27187;SDS011;14708;50.872;5.306;2023-01-16T21:31:59;3.33;;;1.42;;
27187;SDS011;14708;50.872;5.306;2023-01-16T21:34:25;4.00;;;1.02;;
27187;SDS011;14708;50.872;5.306;2023-01-16T21:36:51;2.95;;;1.20;;
27187;SDS011;14708;50.872;5.306;2023-01-16T21:39:17;3.33;;;1.00;;
27187;SDS011;14708;50.872;5.306;2023-01-16T21:41:43;1.40;;;0.90;;
27187;SDS011;14708;50.872;5.306;2023-01-16T21:44:29;5.72;;;1.35;;
27187;SDS011;14708;50.872;5.306;2023-01-16T21:47:14;1.95;;;1.10;;
27187;SDS011;14708;50.872;5.306;2023-01-16T21:49:40;1.65;;;1.05;;
27187;SDS011;14708;50.872;5.306;2023-01-16T21:52:06;1.60;;;0.90;;
27187;SDS011;14708;50.872;5.306;2023-01-16T21:54:32;4.10;;;1.55;;
27187;SDS011;14708;50.872;5.306;2023-01-16T21:56:58;2.25;;;1.20;;
27187;SDS011;14708;50.872;5.306;2023-01-16T21:59:23;1.98;;;1.20;;
27187;SDS011;14708;50.872;5.306;2023-01-16T22:01:49;2.08;;;0.88;;
27187;SDS011;14708;50.872;5.306;2023-01-16T22:04:15;3.08;;;1.25;;
27187;SDS011;14708;50.872;5.306;2023-01-16T22:06:41;1.42;;;0.93;;
27187;SDS011;14708;50.872;5.306;2023-01-16T22:09:08;1.80;;;1.38;;
27187;SDS011;14708;50.872;5.306;2023-01-16T22:11:34;3.08;;;1.05;;
27187;SDS011;14708;50.872;5.306;2023-01-16T22:14:19;2.25;;;0.93;;
27187;SDS011;14708;50.872;5.306;2023-01-16T22:17:04;1.65;;;1.10;;
27187;SDS011;14708;50.872;5.306;2023-01-16T22:19:53;2.60;;;1.17;;
27187;SDS011;14708;50.872;5.306;2023-01-16T22:22:18;1.77;;;0.90;;
27187;SDS011;14708;50.872;5.306;2023-01-16T22:24:48;2.53;;;1.33;;
27187;SDS011;14708;50.872;5.306;2023-01-16T22:27:15;3.15;;;0.90;;
27187;SDS011;14708;50.872;5.306;2023-01-16T22:29:40;1.58;;;0.90;;
27187;SDS011;14708;50.872;5.306;2023-01-16T22:32:06;2.30;;;1.13;;
27187;SDS011;14708;50.872;5.306;2023-01-16T22:34:32;1.70;;;1.00;;
27187;SDS011;14708;50.872;5.306;2023-01-16T22:36:58;3.63;;;1.13;;
27187;SDS011;14708;50.872;5.306;2023-01-16T22:39:25;1.58;;;1.00;;
27187;SDS011;14708;50.872;5.306;2023-01-16T22:41:51;2.13;;;1.23;;
27187;SDS011;14708;50.872;5.306;2023-01-16T22:44:17;1.48;;;1.00;;
27187;SDS011;14708;50.872;5.306;2023-01-16T22:47:01;3.38;;;0.90;;
27187;SDS011;14708;50.872;5.306;2023-01-16T22:49:28;3.30;;;1.00;;
27187;SDS011;14708;50.872;5.306;2023-01-16T22:51:54;2.38;;;1.30;;
27187;SDS011;14708;50.872;5.306;2023-01-16T22:54:21;2.70;;;1.00;;
27187;SDS011;14708;50.872;5.306;2023-01-16T22:56:46;2.22;;;0.95;;
27187;SDS011;14708;50.872;5.306;2023-01-16T22:59:13;2.85;;;1.25;;
27187;SDS011;14708;50.872;5.306;2023-01-16T23:01:38;1.88;;;0.88;;
27187;SDS011;14708;50.872;5.306;2023-01-16T23:04:04;2.70;;;1.10;;
27187;SDS011;14708;50.872;5.306;2023-01-16T23:06:30;3.53;;;1.08;;
27187;SDS011;14708;50.872;5.306;2023-01-16T23:08:55;1.30;;;0.90;;
27187;SDS011;14708;50.872;5.306;2023-01-16T23:11:35;1.85;;;0.93;;
27187;SDS011;14708;50.872;5.306;2023-01-16T23:16:33;1.70;;;0.90;;